Main page
METAR-TAF:

METAR-TAF

Airports :

London City Airport

London, England

latitude: 51-30N, longitude: 000-03E, elevation: 5 m

Current weather observation

The report was made 16 minutes ago, at 13:50 UTC
Wind 7 kt from the West
Temperature 18°C
Humidity 56%
Pressure 1030 hPa
Visibility 10 km or more

METAR: EGLC 201350Z AUTO 26007KT 9999 NCD 18/09 Q1030

Time: 15:06 (14:06 UTC)

Forecast

The report was made 6 hours and 7 minutes ago, at 07:59 UTC
Forecast valid from 20 at 09 UTC to 20 at 12 UTC
Wind 3 kt from the West/Southwest
Visibility 10 km or more
no clouds below 1500 m and no cumulonimbus

TAF: EGLC 200759Z 2009/2012 25003KT CAVOK

Weather observations and forecasts of more than 4000 airports (METAR and TAF reports).

The available stations are represented by yellow and red dots on the map.

Hover mouse over dot to see the name of the station.

Then click to see weather observations and forecasts.

To change the map : click on the green buttons with a black cross to zoom in, on the green button with a dash to zoom out, or on the green arrows for adjacent maps.


METAR-TAF: